createdAt,value
2019-03-31T00:00:03.921Z,57.51
2019-03-31T00:00:38.890Z,57.84
2019-03-31T00:01:10.796Z,58.35
2019-03-31T00:01:43.846Z,58.54
2019-03-31T00:02:16.940Z,58.90
2019-03-31T00:02:48.138Z,59.31
2019-03-31T00:03:19.346Z,59.78
2019-03-31T00:03:50.468Z,60.09
2019-03-31T00:04:21.675Z,60.48
2019-03-31T00:04:52.896Z,60.82
2019-03-31T00:05:24.112Z,61.27
2019-03-31T00:05:55.281Z,61.54
2019-03-31T00:06:26.499Z,61.80
2019-03-31T00:06:57.652Z,62.24
2019-03-31T00:07:28.938Z,62.58
2019-03-31T00:08:00.169Z,63.10
2019-03-31T00:08:31.363Z,63.81
2019-03-31T00:09:05.243Z,63.91
2019-03-31T00:09:36.523Z,63.62
2019-03-31T00:10:07.687Z,62.91
2019-03-31T00:10:38.868Z,62.12
2019-03-31T00:11:10.026Z,61.20
2019-03-31T00:11:41.169Z,60.18
2019-03-31T00:12:12.335Z,59.26
2019-03-31T00:12:44.506Z,58.16
2019-03-31T00:13:15.651Z,57.09
2019-03-31T00:13:46.813Z,56.41
2019-03-31T00:14:17.977Z,56.15
2019-03-31T00:14:49.166Z,56.18
2019-03-31T00:15:20.350Z,56.29
2019-03-31T00:15:51.487Z,56.65
2019-03-31T00:16:22.729Z,56.92
2019-03-31T00:16:53.953Z,57.29
2019-03-31T00:17:26.107Z,57.71
2019-03-31T00:17:57.262Z,58.09
2019-03-31T00:18:28.572Z,58.35
2019-03-31T00:18:59.729Z,58.83
2019-03-31T00:19:30.885Z,59.09
2019-03-31T00:20:03.917Z,59.48
2019-03-31T00:20:35.096Z,59.86
2019-03-31T00:21:06.252Z,60.25
2019-03-31T00:21:38.952Z,60.52
2019-03-31T00:22:10.115Z,60.89
2019-03-31T00:22:41.334Z,61.27
2019-03-31T00:23:12.488Z,61.58
2019-03-31T00:23:43.694Z,61.83
2019-03-31T00:24:14.841Z,62.17
2019-03-31T00:24:46.083Z,62.63
2019-03-31T00:25:17.275Z,63.23
2019-03-31T00:25:48.592Z,63.80
2019-03-31T00:26:19.746Z,63.79
2019-03-31T00:26:50.961Z,63.45
2019-03-31T00:27:22.129Z,62.72
2019-03-31T00:27:53.349Z,61.76
2019-03-31T00:28:24.511Z,60.77
2019-03-31T00:28:55.711Z,59.98
2019-03-31T00:29:26.872Z,59.13
2019-03-31T00:29:58.068Z,57.92
2019-03-31T00:30:29.235Z,56.78
2019-03-31T00:31:00.414Z,56.18
2019-03-31T00:31:31.583Z,55.89
2019-03-31T00:32:02.880Z,55.88
2019-03-31T00:32:34.055Z,56.11
2019-03-31T00:33:05.222Z,56.30
2019-03-31T00:33:36.395Z,56.60
2019-03-31T00:34:07.581Z,56.99
2019-03-31T00:34:38.753Z,57.30
2019-03-31T00:35:09.937Z,57.66
2019-03-31T00:35:41.121Z,57.97
2019-03-31T00:36:12.293Z,58.45
2019-03-31T00:36:43.477Z,58.80
2019-03-31T00:37:14.660Z,59.15
2019-03-31T00:37:45.833Z,59.63
2019-03-31T00:38:17.041Z,59.92
2019-03-31T00:38:48.243Z,60.29
2019-03-31T00:39:19.416Z,60.56
2019-03-31T00:39:50.594Z,61.05
2019-03-31T00:40:21.767Z,61.47
2019-03-31T00:40:52.968Z,61.77
2019-03-31T00:41:24.135Z,62.20
2019-03-31T00:41:55.627Z,62.47
2019-03-31T00:42:26.798Z,63.05
2019-03-31T00:42:58.030Z,63.63
2019-03-31T00:43:29.197Z,63.84
2019-03-31T00:44:00.394Z,63.66
2019-03-31T00:44:31.546Z,62.94
2019-03-31T00:45:05.456Z,62.13
2019-03-31T00:45:36.631Z,61.23
2019-03-31T00:46:07.840Z,60.23
2019-03-31T00:46:39.012Z,59.33
2019-03-31T00:47:10.218Z,58.14
2019-03-31T00:47:41.378Z,57.01
2019-03-31T00:48:12.602Z,56.36
2019-03-31T00:48:43.841Z,55.99
2019-03-31T00:49:15.076Z,56.02
2019-03-31T00:49:46.252Z,56.20
2019-03-31T00:50:17.447Z,56.59
2019-03-31T00:50:48.653Z,56.83
2019-03-31T00:51:19.820Z,57.07
2019-03-31T00:51:51.000Z,57.53
2019-03-31T00:52:22.208Z,57.92
2019-03-31T00:52:53.392Z,58.44
2019-03-31T00:53:24.581Z,58.87
2019-03-31T00:53:55.757Z,59.28
2019-03-31T00:54:27.839Z,59.64
2019-03-31T00:54:59.219Z,59.97
2019-03-31T00:55:30.394Z,60.50
2019-03-31T00:56:01.569Z,60.73
2019-03-31T00:56:32.744Z,61.14
2019-03-31T00:57:03.926Z,61.51
2019-03-31T00:57:35.097Z,61.95
2019-03-31T00:58:06.273Z,62.23
2019-03-31T00:58:37.527Z,62.63
2019-03-31T00:59:08.768Z,63.27
2019-03-31T00:59:39.986Z,63.86
2019-03-31T01:00:13.160Z,63.96
2019-03-31T01:00:46.250Z,63.75
2019-03-31T01:01:35.657Z,62.99
2019-03-31T01:02:00.432Z,62.38
2019-03-31T01:02:33.254Z,61.03
2019-03-31T01:03:04.680Z,60.02
2019-03-31T01:03:37.006Z,59.10
2019-03-31T01:04:08.284Z,57.82
2019-03-31T01:04:39.515Z,56.71
2019-03-31T01:05:10.739Z,56.21
2019-03-31T01:05:42.072Z,55.97
2019-03-31T01:06:13.726Z,56.08
2019-03-31T01:06:45.158Z,56.30
2019-03-31T01:07:16.396Z,56.68
2019-03-31T01:07:47.624Z,57.06
2019-03-31T01:08:18.866Z,57.52
2019-03-31T01:08:50.038Z,57.90
2019-03-31T01:09:24.820Z,58.38
2019-03-31T01:09:56.342Z,58.77
2019-03-31T01:10:27.527Z,59.28
2019-03-31T01:10:58.789Z,59.69
2019-03-31T01:11:29.978Z,60.10
2019-03-31T01:12:01.228Z,60.56
2019-03-31T01:12:32.457Z,60.96
2019-03-31T01:13:04.398Z,61.41
2019-03-31T01:13:35.700Z,61.81
2019-03-31T01:14:08.946Z,62.19
2019-03-31T01:14:40.255Z,62.60
2019-03-31T01:15:13.283Z,63.22
2019-03-31T01:15:44.639Z,63.83
2019-03-31T01:16:15.777Z,64.01
2019-03-31T01:16:47.007Z,63.67
2019-03-31T01:17:18.939Z,63.02
2019-03-31T01:17:50.467Z,62.25
2019-03-31T01:18:21.617Z,61.24
2019-03-31T01:18:52.819Z,60.24
2019-03-31T01:19:24.203Z,59.35
2019-03-31T01:19:56.427Z,58.12
2019-03-31T01:20:27.566Z,57.10
2019-03-31T01:20:58.781Z,56.35
2019-03-31T01:21:30.953Z,56.11
2019-03-31T01:22:02.157Z,56.09
2019-03-31T01:22:33.307Z,56.30
2019-03-31T01:23:04.904Z,56.66
2019-03-31T01:23:36.053Z,56.94
2019-03-31T01:24:07.261Z,57.36
2019-03-31T01:24:38.401Z,57.79
2019-03-31T01:25:09.719Z,58.23
2019-03-31T01:25:41.879Z,58.57
2019-03-31T01:26:14.936Z,59.11
2019-03-31T01:26:46.101Z,59.45
2019-03-31T01:27:17.443Z,59.98
2019-03-31T01:27:48.689Z,60.34
2019-03-31T01:28:19.913Z,60.70
2019-03-31T01:28:51.133Z,61.18
2019-03-31T01:29:22.354Z,61.58
2019-03-31T01:29:53.619Z,61.93
2019-03-31T01:30:25.249Z,62.30
2019-03-31T01:30:56.500Z,62.70
2019-03-31T01:31:28.655Z,63.26
2019-03-31T01:32:00.126Z,63.78
2019-03-31T01:32:31.280Z,63.93
2019-03-31T01:33:02.582Z,63.44
2019-03-31T01:33:33.757Z,62.88
2019-03-31T01:34:05.070Z,61.99
2019-03-31T01:34:36.280Z,61.09
2019-03-31T01:35:07.805Z,60.19
2019-03-31T01:35:38.950Z,59.23
2019-03-31T01:36:10.276Z,58.17
2019-03-31T01:36:41.439Z,57.20
2019-03-31T01:37:13.135Z,56.44
2019-03-31T01:37:44.287Z,56.13
2019-03-31T01:38:15.481Z,56.07
2019-03-31T01:38:49.679Z,56.25
2019-03-31T01:39:23.789Z,56.50
2019-03-31T01:39:55.020Z,56.89
2019-03-31T01:40:26.165Z,57.20
2019-03-31T01:40:57.371Z,57.63
2019-03-31T01:41:28.568Z,57.97
2019-03-31T01:41:59.722Z,58.25
2019-03-31T01:42:32.776Z,58.71
2019-03-31T01:43:03.970Z,59.03
2019-03-31T01:43:35.129Z,59.47
2019-03-31T01:44:06.310Z,59.82
2019-03-31T01:44:37.473Z,60.12
2019-03-31T01:45:08.683Z,60.51
2019-03-31T01:45:39.837Z,60.94
2019-03-31T01:46:12.445Z,61.35
2019-03-31T01:46:43.587Z,61.66
2019-03-31T01:47:16.676Z,62.09
2019-03-31T01:47:47.837Z,62.49
2019-03-31T01:48:19.033Z,63.15
2019-03-31T01:48:50.277Z,63.94
2019-03-31T01:49:21.473Z,64.17
2019-03-31T01:49:52.723Z,63.92
2019-03-31T01:50:24.221Z,63.33
2019-03-31T01:50:55.411Z,62.57
2019-03-31T01:51:26.617Z,61.68
2019-03-31T01:51:57.865Z,60.81
2019-03-31T01:52:29.067Z,59.90
2019-03-31T01:53:00.222Z,59.18
2019-03-31T01:53:31.438Z,57.99
2019-03-31T01:54:02.877Z,57.10
2019-03-31T01:54:34.088Z,56.59
2019-03-31T01:55:05.327Z,56.36
2019-03-31T01:55:36.530Z,56.56
2019-03-31T01:56:07.684Z,56.79
2019-03-31T01:56:38.897Z,57.18
2019-03-31T01:57:10.068Z,57.61
2019-03-31T01:57:41.222Z,58.10
2019-03-31T01:58:12.400Z,58.58
2019-03-31T01:58:43.629Z,59.11
2019-03-31T01:59:14.872Z,59.58
2019-03-31T01:59:46.104Z,59.98
2019-03-31T02:00:35.496Z,60.45
2019-03-31T02:01:17.360Z,60.73
2019-03-31T02:01:48.600Z,61.37
2019-03-31T02:02:27.191Z,61.97
2019-03-31T02:02:58.346Z,62.33
2019-03-31T02:03:29.541Z,63.09
2019-03-31T02:04:00.697Z,63.84
2019-03-31T02:04:31.915Z,64.14
2019-03-31T02:05:06.017Z,64.06
2019-03-31T02:05:38.179Z,63.56
2019-03-31T02:06:09.365Z,62.71
2019-03-31T02:06:40.533Z,61.79
2019-03-31T02:07:11.703Z,60.91
2019-03-31T02:07:42.875Z,59.97
2019-03-31T02:08:14.081Z,59.20
2019-03-31T02:08:45.319Z,58.02
2019-03-31T02:09:16.498Z,57.01
2019-03-31T02:09:47.681Z,56.51
2019-03-31T02:10:18.851Z,56.33
2019-03-31T02:10:50.131Z,56.40
2019-03-31T02:11:21.330Z,56.62
2019-03-31T02:11:52.486Z,57.00
2019-03-31T02:12:23.653Z,57.41
2019-03-31T02:12:54.885Z,57.85
2019-03-31T02:13:26.037Z,58.38
2019-03-31T02:13:57.233Z,58.86
2019-03-31T02:14:28.375Z,59.36
2019-03-31T02:14:59.575Z,59.81
2019-03-31T02:15:30.735Z,60.31
2019-03-31T02:16:01.938Z,60.78
2019-03-31T02:16:33.111Z,61.19
2019-03-31T02:17:04.312Z,61.58
2019-03-31T02:17:35.493Z,62.04
2019-03-31T02:18:07.235Z,62.38
2019-03-31T02:18:38.492Z,62.99
2019-03-31T02:19:09.751Z,63.67
2019-03-31T02:19:40.989Z,63.97
2019-03-31T02:20:12.214Z,63.76
2019-03-31T02:20:43.443Z,63.13
2019-03-31T02:21:14.656Z,62.43
2019-03-31T02:21:45.926Z,61.63
2019-03-31T02:22:17.158Z,60.75
2019-03-31T02:22:49.399Z,59.87
2019-03-31T02:23:20.561Z,58.95
2019-03-31T02:23:51.764Z,57.86
2019-03-31T02:24:22.902Z,56.99
2019-03-31T02:24:54.123Z,56.45
2019-03-31T02:25:25.352Z,56.30
2019-03-31T02:25:56.575Z,56.39
2019-03-31T02:26:27.981Z,56.68
2019-03-31T02:26:59.590Z,57.01
2019-03-31T02:27:30.781Z,57.38
2019-03-31T02:28:01.999Z,57.87
2019-03-31T02:28:33.168Z,58.36
2019-03-31T02:29:04.389Z,58.91
2019-03-31T02:29:35.545Z,59.31
2019-03-31T02:30:06.851Z,59.81
2019-03-31T02:30:38.043Z,60.26
2019-03-31T02:31:09.296Z,60.76
2019-03-31T02:31:40.448Z,61.20
2019-03-31T02:32:23.222Z,61.60
2019-03-31T02:32:44.945Z,61.98
2019-03-31T02:33:16.196Z,62.50
2019-03-31T02:33:48.429Z,63.18
2019-03-31T02:34:19.747Z,63.90
2019-03-31T02:34:51.005Z,64.20
2019-03-31T02:35:22.254Z,63.95
2019-03-31T02:35:53.493Z,63.43
2019-03-31T02:36:25.033Z,62.63
2019-03-31T02:36:56.264Z,61.88
2019-03-31T02:37:27.523Z,60.94
2019-03-31T02:38:00.688Z,60.07
2019-03-31T02:38:31.833Z,59.29
2019-03-31T02:39:03.932Z,58.20
2019-03-31T02:39:35.297Z,57.30
2019-03-31T02:40:06.472Z,56.69
2019-03-31T02:40:37.656Z,56.52
2019-03-31T02:41:08.796Z,56.68
2019-03-31T02:41:39.953Z,56.94
2019-03-31T02:42:11.125Z,57.33
2019-03-31T02:42:42.310Z,57.81
2019-03-31T02:43:13.482Z,58.23
2019-03-31T02:43:44.674Z,58.76
2019-03-31T02:44:15.842Z,59.19
2019-03-31T02:44:47.026Z,59.66
2019-03-31T02:45:18.191Z,60.14
2019-03-31T02:45:49.401Z,60.59
2019-03-31T02:46:20.575Z,61.07
2019-03-31T02:46:51.757Z,61.55
2019-03-31T02:47:22.935Z,62.01
2019-03-31T02:47:54.134Z,62.40
2019-03-31T02:48:25.417Z,63.09
2019-03-31T02:48:56.620Z,63.74
2019-03-31T02:49:28.916Z,64.04
2019-03-31T02:50:00.602Z,63.82
2019-03-31T02:50:47.925Z,63.14
2019-03-31T02:51:19.111Z,62.78
2019-03-31T02:51:50.296Z,61.39
2019-03-31T02:52:21.472Z,60.37
2019-03-31T02:52:52.648Z,59.53
2019-03-31T02:53:23.875Z,58.32
2019-03-31T02:53:55.025Z,57.31
2019-03-31T02:54:26.216Z,56.72
2019-03-31T02:54:57.368Z,56.50
2019-03-31T02:55:28.583Z,56.47
2019-03-31T02:55:59.744Z,56.73
2019-03-31T02:56:30.941Z,57.01
2019-03-31T02:57:02.784Z,57.43
2019-03-31T02:57:33.991Z,57.87
2019-03-31T02:58:05.179Z,58.43
2019-03-31T02:58:36.396Z,58.90
2019-03-31T02:59:07.811Z,59.31
2019-03-31T02:59:39.153Z,59.82
2019-03-31T03:00:10.375Z,60.26
2019-03-31T03:00:41.698Z,60.71
2019-03-31T03:01:13.126Z,61.20
2019-03-31T03:01:45.885Z,61.66
2019-03-31T03:02:17.103Z,62.01
2019-03-31T03:02:48.352Z,62.39
2019-03-31T03:03:19.593Z,62.99
2019-03-31T03:03:50.850Z,63.70
2019-03-31T03:04:22.078Z,63.97
2019-03-31T03:04:53.314Z,63.76
2019-03-31T03:05:24.791Z,63.12
2019-03-31T03:05:56.027Z,62.29
2019-03-31T03:06:27.259Z,61.39
2019-03-31T03:06:59.303Z,60.58
2019-03-31T03:07:30.828Z,59.66
2019-03-31T03:08:02.063Z,58.84
2019-03-31T03:08:33.357Z,57.60
2019-03-31T03:09:05.242Z,56.70
2019-03-31T03:09:36.470Z,56.15
2019-03-31T03:10:07.655Z,55.96
2019-03-31T03:10:39.909Z,56.00
2019-03-31T03:11:12.159Z,56.19
2019-03-31T03:11:43.355Z,56.55
2019-03-31T03:12:14.497Z,56.92
2019-03-31T03:12:45.708Z,57.37
2019-03-31T03:13:16.864Z,57.80
2019-03-31T03:13:48.057Z,58.20
2019-03-31T03:14:19.238Z,58.68
2019-03-31T03:14:50.566Z,59.08
2019-03-31T03:15:28.458Z,59.48
2019-03-31T03:16:13.968Z,59.78
2019-03-31T03:16:45.185Z,60.14
2019-03-31T03:17:16.404Z,60.79
2019-03-31T03:17:47.673Z,61.23
2019-03-31T03:18:18.852Z,61.66
2019-03-31T03:18:50.052Z,62.02
2019-03-31T03:19:22.242Z,62.38
2019-03-31T03:19:53.487Z,62.96
2019-03-31T03:20:25.018Z,63.65
2019-03-31T03:20:56.279Z,63.84
2019-03-31T03:21:27.479Z,63.57
2019-03-31T03:21:58.762Z,62.99
2019-03-31T03:22:29.966Z,62.09
2019-03-31T03:23:01.102Z,61.21
2019-03-31T03:23:32.322Z,60.16
2019-03-31T03:24:03.517Z,59.26
2019-03-31T03:24:34.805Z,58.04
2019-03-31T03:25:05.958Z,56.87
2019-03-31T03:25:54.527Z,56.30
2019-03-31T03:26:10.208Z,55.99
2019-03-31T03:26:41.557Z,56.05
2019-03-31T03:27:12.700Z,56.23
2019-03-31T03:27:43.922Z,56.51
2019-03-31T03:28:15.080Z,56.83
2019-03-31T03:28:46.280Z,57.23
2019-03-31T03:29:17.461Z,57.74
2019-03-31T03:29:48.642Z,58.12
2019-03-31T03:30:20.984Z,58.48
2019-03-31T03:30:52.365Z,58.97
2019-03-31T03:31:23.682Z,59.41
2019-03-31T03:31:55.006Z,59.76
2019-03-31T03:32:26.273Z,60.13
2019-03-31T03:33:14.922Z,60.51
2019-03-31T03:33:30.545Z,60.85
2019-03-31T03:34:01.799Z,61.22
2019-03-31T03:34:33.076Z,61.56
2019-03-31T03:35:04.292Z,61.93
2019-03-31T03:35:35.454Z,62.21
2019-03-31T03:36:06.642Z,62.55
2019-03-31T03:36:37.809Z,63.17
2019-03-31T03:37:08.979Z,63.73
2019-03-31T03:37:40.163Z,63.84
2019-03-31T03:38:11.344Z,63.47
2019-03-31T03:38:42.536Z,62.67
2019-03-31T03:39:13.714Z,62.01
2019-03-31T03:39:44.893Z,60.97
2019-03-31T03:40:16.065Z,60.04
2019-03-31T03:40:47.262Z,59.05
2019-03-31T03:41:18.410Z,57.66
2019-03-31T03:41:49.707Z,56.77
2019-03-31T03:42:20.895Z,56.21
2019-03-31T03:42:52.095Z,56.00
2019-03-31T03:43:23.234Z,56.01
2019-03-31T03:43:57.083Z,56.26
2019-03-31T03:44:27.518Z,56.44
2019-03-31T03:44:58.713Z,56.85
2019-03-31T03:45:29.995Z,57.25
2019-03-31T03:46:01.176Z,57.72
2019-03-31T03:46:32.435Z,58.14
2019-03-31T03:47:03.712Z,58.55
2019-03-31T03:47:34.902Z,58.92
2019-03-31T03:48:06.072Z,59.43
2019-03-31T03:48:37.257Z,59.82
2019-03-31T03:49:08.475Z,60.23
2019-03-31T03:49:39.716Z,60.54
2019-03-31T03:50:10.875Z,60.98
2019-03-31T03:50:42.089Z,61.36
2019-03-31T03:51:13.241Z,61.70
2019-03-31T03:51:44.447Z,62.08
2019-03-31T03:52:15.604Z,62.34
2019-03-31T03:52:46.836Z,62.68
2019-03-31T03:53:17.991Z,63.54
2019-03-31T03:53:49.198Z,64.11
2019-03-31T03:54:21.327Z,64.33
2019-03-31T03:54:52.678Z,64.03
2019-03-31T03:55:23.927Z,63.31
2019-03-31T03:55:55.429Z,62.51
2019-03-31T03:56:29.097Z,61.49
2019-03-31T03:56:59.770Z,60.82
2019-03-31T03:57:31.013Z,59.83
2019-03-31T03:58:02.220Z,58.78
2019-03-31T03:58:33.367Z,57.57
2019-03-31T03:59:04.566Z,56.51
2019-03-31T03:59:35.744Z,55.98
2019-03-31T04:00:07.054Z,55.85
2019-03-31T04:00:38.209Z,55.94
2019-03-31T04:01:11.321Z,56.19
2019-03-31T04:01:42.481Z,56.59
2019-03-31T04:02:13.709Z,56.98
2019-03-31T04:02:44.863Z,57.28
2019-03-31T04:03:30.042Z,57.83
2019-03-31T04:03:49.124Z,58.27
2019-03-31T04:04:20.311Z,58.75
2019-03-31T04:04:51.491Z,59.21
2019-03-31T04:05:22.736Z,59.62
2019-03-31T04:05:53.967Z,60.07
2019-03-31T04:06:25.446Z,60.48
2019-03-31T04:06:56.696Z,60.92
2019-03-31T04:07:28.012Z,61.41
2019-03-31T04:07:59.346Z,61.79
2019-03-31T04:08:30.580Z,62.19
2019-03-31T04:09:01.804Z,62.61
2019-03-31T04:09:34.116Z,63.35
2019-03-31T04:10:27.414Z,63.92
2019-03-31T04:11:12.128Z,64.68
2019-03-31T04:11:43.435Z,63.95
2019-03-31T04:12:14.741Z,62.60
2019-03-31T04:12:46.012Z,61.60
2019-03-31T04:13:17.255Z,60.63
2019-03-31T04:13:48.436Z,59.71
2019-03-31T04:14:19.642Z,58.84
2019-03-31T04:14:50.817Z,57.71
2019-03-31T04:15:22.051Z,56.81
2019-03-31T04:15:53.226Z,56.24
2019-03-31T04:16:24.432Z,56.04
2019-03-31T04:16:55.582Z,56.01
2019-03-31T04:17:26.794Z,56.29
2019-03-31T04:17:57.931Z,56.71
2019-03-31T04:18:29.129Z,57.16
2019-03-31T04:19:00.318Z,57.58
2019-03-31T04:19:31.498Z,57.99
2019-03-31T04:20:03.875Z,58.40
2019-03-31T04:20:39.107Z,58.79
2019-03-31T04:21:08.140Z,59.27
2019-03-31T04:21:39.323Z,59.78
2019-03-31T04:22:10.486Z,60.17
2019-03-31T04:22:41.658Z,60.49
2019-03-31T04:23:12.842Z,60.95
2019-03-31T04:23:44.024Z,61.29
2019-03-31T04:24:16.217Z,61.66
2019-03-31T04:24:47.483Z,62.12
2019-03-31T04:25:18.672Z,62.67
2019-03-31T04:25:49.855Z,63.38
2019-03-31T04:26:21.035Z,63.93
2019-03-31T04:26:52.253Z,63.99
2019-03-31T04:27:23.452Z,63.69
2019-03-31T04:27:54.624Z,63.13
2019-03-31T04:28:25.798Z,62.14
2019-03-31T04:28:56.987Z,61.41
2019-03-31T04:29:28.330Z,60.51
2019-03-31T04:29:59.529Z,59.66
2019-03-31T04:30:30.726Z,58.54
2019-03-31T04:31:01.906Z,57.53
2019-03-31T04:31:33.088Z,56.89
2019-03-31T04:32:04.371Z,56.58
2019-03-31T04:32:38.753Z,56.58
2019-03-31T04:33:08.774Z,56.74
2019-03-31T04:33:50.423Z,56.98
2019-03-31T04:34:13.067Z,57.34
2019-03-31T04:34:44.266Z,57.71
2019-03-31T04:35:15.465Z,58.19
2019-03-31T04:35:46.663Z,58.56
2019-03-31T04:36:17.868Z,58.95
2019-03-31T04:36:49.004Z,59.37
2019-03-31T04:37:20.228Z,59.71
2019-03-31T04:37:51.386Z,60.07
2019-03-31T04:38:22.593Z,60.35
2019-03-31T04:38:53.751Z,60.75
2019-03-31T04:39:25.179Z,61.04
2019-03-31T04:39:56.419Z,61.24
2019-03-31T04:40:27.842Z,61.54
2019-03-31T04:40:59.089Z,61.78
2019-03-31T04:41:30.331Z,62.06
2019-03-31T04:42:01.554Z,62.51
2019-03-31T04:42:32.785Z,63.05
2019-03-31T04:43:04.109Z,63.60
2019-03-31T04:43:35.342Z,63.73
2019-03-31T04:44:06.570Z,63.39
2019-03-31T04:44:39.753Z,62.76
2019-03-31T04:45:10.922Z,62.01
2019-03-31T04:45:42.125Z,60.98
2019-03-31T04:46:13.266Z,59.80
2019-03-31T04:46:45.454Z,58.93
2019-03-31T04:47:16.606Z,57.57
2019-03-31T04:47:47.813Z,56.46
2019-03-31T04:48:18.963Z,55.74
2019-03-31T04:48:50.165Z,55.45
2019-03-31T04:49:21.335Z,55.50
2019-03-31T04:49:52.537Z,55.46
2019-03-31T04:50:23.718Z,56.00
2019-03-31T04:50:56.053Z,56.48
2019-03-31T04:51:27.198Z,56.78
2019-03-31T04:51:58.579Z,57.24
2019-03-31T04:52:29.720Z,57.79
2019-03-31T04:53:00.922Z,58.41
2019-03-31T04:53:32.077Z,58.94
2019-03-31T04:54:03.394Z,59.00
2019-03-31T04:54:34.532Z,59.30
2019-03-31T04:55:05.742Z,59.73
2019-03-31T04:55:36.898Z,59.91
2019-03-31T04:56:08.144Z,59.90
2019-03-31T04:56:39.369Z,60.24
2019-03-31T04:57:10.647Z,60.40
2019-03-31T04:57:43.036Z,60.76
2019-03-31T04:58:14.290Z,61.15
2019-03-31T04:58:45.512Z,61.50
2019-03-31T04:59:16.833Z,61.80
2019-03-31T04:59:50.898Z,62.23
2019-03-31T05:00:22.138Z,62.64
2019-03-31T05:00:53.360Z,63.45
2019-03-31T05:01:24.500Z,64.02
2019-03-31T05:01:55.698Z,64.22
2019-03-31T05:02:27.437Z,63.74
2019-03-31T05:02:58.763Z,63.29
2019-03-31T05:03:29.917Z,62.37
2019-03-31T05:04:05.025Z,61.33
2019-03-31T05:04:34.180Z,60.60
2019-03-31T05:05:05.376Z,59.75
2019-03-31T05:05:36.570Z,58.99
2019-03-31T05:06:07.828Z,57.75
2019-03-31T05:06:38.965Z,56.81
2019-03-31T05:07:10.181Z,56.43
2019-03-31T05:07:41.331Z,56.44
2019-03-31T05:08:12.532Z,56.54
2019-03-31T05:08:43.709Z,56.79
2019-03-31T05:09:14.914Z,57.23
2019-03-31T05:09:46.047Z,57.62
2019-03-31T05:10:17.229Z,58.12
2019-03-31T05:10:48.405Z,58.62
2019-03-31T05:11:19.609Z,59.04
2019-03-31T05:11:50.802Z,59.75
2019-03-31T05:12:21.968Z,60.18
2019-03-31T05:12:53.152Z,60.85
2019-03-31T05:13:24.321Z,61.27
2019-03-31T05:13:57.404Z,61.75
2019-03-31T05:14:28.573Z,62.45
2019-03-31T05:14:59.742Z,63.20
2019-03-31T05:15:30.932Z,64.09
2019-03-31T05:16:02.315Z,64.47
2019-03-31T05:16:33.625Z,64.32
2019-03-31T05:17:04.806Z,63.98
2019-03-31T05:17:36.113Z,63.54
2019-03-31T05:18:07.358Z,62.78
2019-03-31T05:18:38.561Z,61.99
2019-03-31T05:19:09.744Z,61.27
2019-03-31T05:19:40.913Z,60.58
2019-03-31T05:20:12.108Z,59.94
2019-03-31T05:20:43.270Z,59.41
2019-03-31T05:21:14.450Z,58.50
2019-03-31T05:21:45.672Z,57.75
2019-03-31T05:22:16.906Z,57.46
2019-03-31T05:22:48.100Z,57.48
2019-03-31T05:23:19.362Z,57.67
2019-03-31T05:23:50.552Z,58.08
2019-03-31T05:24:21.736Z,58.62
2019-03-31T05:24:52.914Z,59.25
2019-03-31T05:25:24.067Z,59.83
2019-03-31T05:25:55.606Z,60.45
2019-03-31T05:26:26.783Z,61.09
2019-03-31T05:26:57.954Z,61.85
2019-03-31T05:27:29.115Z,62.33
2019-03-31T05:28:00.311Z,63.29
2019-03-31T05:28:31.819Z,64.35
2019-03-31T05:29:03.019Z,64.80
2019-03-31T05:29:34.207Z,64.81
2019-03-31T05:30:05.393Z,64.47
2019-03-31T05:30:36.567Z,63.89
2019-03-31T05:31:07.762Z,63.16
2019-03-31T05:31:40.815Z,62.41
2019-03-31T05:32:12.031Z,61.75
2019-03-31T05:32:43.176Z,60.99
2019-03-31T05:33:15.201Z,60.42
2019-03-31T05:33:46.356Z,59.91
2019-03-31T05:34:19.753Z,59.31
2019-03-31T05:34:51.028Z,58.40
2019-03-31T05:35:22.216Z,57.75
2019-03-31T05:35:53.368Z,57.46
2019-03-31T05:36:24.866Z,57.63
2019-03-31T05:36:56.029Z,57.88
2019-03-31T05:37:27.228Z,58.38
2019-03-31T05:37:58.380Z,58.89
2019-03-31T05:38:29.604Z,59.49
2019-03-31T05:39:00.729Z,60.05
2019-03-31T05:39:31.940Z,60.66
2019-03-31T05:40:03.812Z,61.39
2019-03-31T05:40:35.988Z,61.99
2019-03-31T05:41:07.170Z,62.59
2019-03-31T05:41:38.422Z,63.34
2019-03-31T05:42:09.582Z,64.21
2019-03-31T05:42:40.778Z,64.51
2019-03-31T05:43:11.964Z,64.35
2019-03-31T05:43:43.180Z,63.93
2019-03-31T05:44:14.328Z,63.44
2019-03-31T05:44:45.545Z,62.71
2019-03-31T05:45:16.712Z,61.98
2019-03-31T05:45:47.932Z,61.27
2019-03-31T05:46:19.108Z,60.42
2019-03-31T05:46:50.354Z,59.74
2019-03-31T05:47:22.616Z,58.97
2019-03-31T05:47:53.855Z,58.03
2019-03-31T05:48:25.452Z,57.30
2019-03-31T05:48:56.676Z,56.73
2019-03-31T05:49:27.975Z,56.72
2019-03-31T05:49:59.193Z,57.01
2019-03-31T05:50:30.439Z,57.43
2019-03-31T05:51:01.693Z,57.92
2019-03-31T05:51:32.939Z,58.50
2019-03-31T05:52:04.104Z,59.04
2019-03-31T05:52:35.326Z,59.53
2019-03-31T05:53:06.485Z,60.16
2019-03-31T05:53:37.698Z,60.76
2019-03-31T05:54:08.857Z,61.36
2019-03-31T05:54:40.071Z,61.81
2019-03-31T05:55:11.221Z,62.26
2019-03-31T05:55:42.442Z,62.87
2019-03-31T05:56:13.586Z,63.62
2019-03-31T05:56:44.793Z,64.48
2019-03-31T05:57:15.937Z,64.87
2019-03-31T05:57:47.147Z,64.81
2019-03-31T05:58:18.297Z,64.16
2019-03-31T05:58:49.508Z,63.34
2019-03-31T05:59:20.650Z,62.71
2019-03-31T05:59:51.867Z,61.85
2019-03-31T06:00:33.960Z,61.07
2019-03-31T06:01:05.216Z,60.53
2019-03-31T06:01:36.421Z,59.65
2019-03-31T06:02:07.573Z,59.01
2019-03-31T06:02:38.767Z,58.02
2019-03-31T06:03:09.905Z,57.22
2019-03-31T06:03:41.114Z,57.12
2019-03-31T06:04:12.272Z,57.09
2019-03-31T06:04:43.471Z,57.32
2019-03-31T06:05:14.622Z,57.75
2019-03-31T06:05:46.950Z,58.14
2019-03-31T06:06:18.815Z,58.71
2019-03-31T06:06:49.998Z,59.24
2019-03-31T06:07:21.179Z,59.84
2019-03-31T06:07:52.362Z,60.42
2019-03-31T06:08:23.542Z,61.01
2019-03-31T06:08:54.924Z,61.54
2019-03-31T06:09:26.099Z,62.11
2019-03-31T06:09:59.175Z,62.64
2019-03-31T06:10:30.357Z,63.27
2019-03-31T06:11:01.545Z,63.95
2019-03-31T06:11:32.757Z,64.21
2019-03-31T06:12:03.960Z,64.03
2019-03-31T06:12:35.120Z,63.43
2019-03-31T06:13:06.312Z,62.75
2019-03-31T06:13:37.469Z,61.79
2019-03-31T06:14:08.669Z,61.13
2019-03-31T06:14:39.823Z,60.22
2019-03-31T06:15:11.043Z,59.73
2019-03-31T06:15:42.200Z,58.99
2019-03-31T06:16:13.407Z,58.27
2019-03-31T06:16:44.578Z,57.87
2019-03-31T06:17:15.821Z,57.57
2019-03-31T06:17:46.999Z,57.41
2019-03-31T06:18:18.258Z,57.71
2019-03-31T06:18:49.514Z,57.81
2019-03-31T06:19:20.697Z,58.20
2019-03-31T06:19:51.882Z,58.23
2019-03-31T06:20:23.059Z,58.70
2019-03-31T06:20:54.249Z,59.22
2019-03-31T06:21:28.989Z,59.93
2019-03-31T06:21:58.707Z,60.32
2019-03-31T06:22:29.887Z,60.79
2019-03-31T06:23:01.070Z,61.41
2019-03-31T06:23:32.240Z,61.91
2019-03-31T06:24:03.433Z,62.40
2019-03-31T06:24:34.644Z,63.16
2019-03-31T06:25:05.940Z,63.76
2019-03-31T06:25:37.124Z,64.21
2019-03-31T06:26:08.318Z,64.14
2019-03-31T06:26:39.520Z,63.70
2019-03-31T06:27:10.725Z,62.85
2019-03-31T06:27:41.920Z,62.26
2019-03-31T06:28:13.094Z,61.24
2019-03-31T06:28:44.266Z,60.21
2019-03-31T06:29:15.446Z,59.55
2019-03-31T06:29:46.619Z,58.63
2019-03-31T06:30:17.798Z,57.95
2019-03-31T06:30:48.978Z,57.38
2019-03-31T06:31:20.144Z,56.92
2019-03-31T06:31:51.344Z,57.08
2019-03-31T06:32:22.539Z,57.41
2019-03-31T06:32:55.431Z,57.84
2019-03-31T06:33:27.828Z,58.51
2019-03-31T06:33:59.027Z,59.16
2019-03-31T06:34:30.227Z,59.70
2019-03-31T06:35:01.507Z,60.14
2019-03-31T06:35:32.690Z,60.76
2019-03-31T06:36:04.876Z,61.33
2019-03-31T06:36:36.059Z,61.89
2019-03-31T06:37:07.264Z,62.52
2019-03-31T06:37:38.408Z,62.94
2019-03-31T06:38:09.625Z,63.65
2019-03-31T06:38:40.797Z,63.93
2019-03-31T06:39:12.047Z,63.70
2019-03-31T06:39:43.253Z,63.24
2019-03-31T06:40:14.472Z,62.24
2019-03-31T06:40:47.517Z,61.51
2019-03-31T06:41:18.696Z,60.55
2019-03-31T06:41:50.863Z,59.93
2019-03-31T06:42:22.073Z,59.15
2019-03-31T06:42:53.221Z,58.19
2019-03-31T06:43:24.437Z,57.24
2019-03-31T06:43:55.587Z,56.45
2019-03-31T06:44:26.805Z,56.46
2019-03-31T06:44:57.947Z,56.82
2019-03-31T06:45:29.156Z,57.29
2019-03-31T06:46:00.411Z,57.74